createdAt,value
2018-06-16T00:01:45.269Z,14.10
2018-06-16T00:04:13.493Z,14.10
2018-06-16T00:06:43.093Z,14.00
2018-06-16T00:09:11.305Z,14.10
2018-06-16T00:11:39.584Z,14.10
2018-06-16T00:14:08.478Z,14.00
2018-06-16T00:16:37.001Z,14.10
2018-06-16T00:19:05.253Z,14.00
2018-06-16T00:21:34.021Z,13.90
2018-06-16T00:24:03.450Z,13.90
2018-06-16T00:26:31.730Z,13.90
2018-06-16T00:29:00.525Z,14.00
2018-06-16T00:31:28.766Z,14.10
2018-06-16T00:33:57.001Z,14.20
2018-06-16T00:36:25.198Z,14.20
2018-06-16T00:38:53.369Z,14.10
2018-06-16T00:41:21.671Z,14.10
2018-06-16T00:43:49.862Z,13.90
2018-06-16T00:46:18.059Z,13.90
2018-06-16T00:48:46.812Z,13.80
2018-06-16T00:51:15.026Z,13.80
2018-06-16T00:53:43.549Z,13.70
2018-06-16T00:56:12.298Z,13.70
2018-06-16T00:58:40.494Z,13.70
2018-06-16T01:01:09.317Z,13.70
2018-06-16T01:03:37.574Z,13.70
2018-06-16T01:06:05.873Z,13.70
2018-06-16T01:08:34.093Z,13.60
2018-06-16T01:11:02.287Z,13.70
2018-06-16T01:13:31.101Z,13.70
2018-06-16T01:15:59.885Z,13.60
2018-06-16T01:18:29.668Z,13.20
2018-06-16T01:20:57.918Z,13.10
2018-06-16T01:25:54.074Z,12.90
2018-06-16T01:28:22.302Z,12.80
2018-06-16T01:30:51.053Z,12.70
2018-06-16T01:33:19.285Z,12.80
2018-06-16T01:35:47.534Z,12.80
2018-06-16T01:38:15.770Z,12.90
2018-06-16T01:40:45.081Z,12.90
2018-06-16T01:43:13.643Z,12.80
2018-06-16T01:45:42.065Z,12.50
2018-06-16T01:48:10.685Z,12.60
2018-06-16T01:53:07.010Z,12.50
2018-06-16T01:55:35.590Z,12.40
2018-06-16T01:58:04.388Z,12.30
2018-06-16T02:00:32.930Z,12.40
2018-06-16T02:03:01.171Z,12.40
2018-06-16T02:07:58.678Z,12.50
2018-06-16T02:10:27.226Z,12.60
2018-06-16T02:12:55.426Z,12.60
2018-06-16T02:15:23.649Z,12.50
2018-06-16T02:17:52.761Z,12.50
2018-06-16T02:20:20.983Z,12.70
2018-06-16T02:22:49.234Z,12.70
2018-06-16T02:27:45.750Z,12.50
2018-06-16T02:30:14.442Z,12.50
2018-06-16T02:32:42.715Z,12.50
2018-06-16T02:35:10.965Z,12.60
2018-06-16T02:37:39.122Z,12.60
2018-06-16T02:40:07.334Z,12.50
2018-06-16T02:42:36.546Z,12.50
2018-06-16T02:45:05.162Z,12.50
2018-06-16T02:47:34.045Z,12.50
2018-06-16T02:50:02.661Z,12.60
2018-06-16T02:52:31.182Z,12.70
2018-06-16T02:55:00.475Z,12.80
2018-06-16T02:57:28.706Z,12.70
2018-06-16T02:59:56.905Z,12.60
2018-06-16T03:02:26.388Z,12.50
2018-06-16T03:04:54.601Z,12.60
2018-06-16T03:07:22.806Z,12.50
2018-06-16T03:09:51.020Z,12.40
2018-06-16T03:12:19.276Z,12.50
2018-06-16T03:14:47.481Z,12.60
2018-06-16T03:17:16.843Z,12.60
2018-06-16T03:19:45.097Z,12.60
2018-06-16T03:22:13.345Z,12.70
2018-06-16T03:24:41.754Z,12.90
2018-06-16T03:27:10.877Z,13.00
2018-06-16T03:29:39.094Z,13.00
2018-06-16T03:32:08.202Z,13.20
2018-06-16T03:34:36.833Z,13.50
2018-06-16T03:37:05.087Z,13.50
2018-06-16T03:42:01.266Z,13.60
2018-06-16T03:44:29.558Z,13.70
2018-06-16T03:46:57.770Z,13.80
2018-06-16T03:49:25.979Z,13.80
2018-06-16T03:51:55.823Z,13.90
2018-06-16T03:54:24.021Z,13.90
2018-06-16T03:56:52.227Z,14.00
2018-06-16T04:01:48.436Z,14.20
2018-06-16T04:04:16.761Z,14.20
2018-06-16T04:06:44.981Z,14.20
2018-06-16T04:09:13.257Z,14.50
2018-06-16T04:11:41.510Z,14.60
2018-06-16T04:14:09.734Z,14.50
2018-06-16T04:16:37.965Z,14.30
2018-06-16T04:19:06.221Z,14.10
2018-06-16T04:21:34.770Z,14.00
2018-06-16T04:24:03.073Z,14.00
2018-06-16T04:26:31.237Z,14.10
2018-06-16T04:28:59.490Z,14.20
2018-06-16T04:31:27.707Z,14.20
2018-06-16T04:33:56.601Z,14.30
2018-06-16T04:36:24.796Z,14.60
2018-06-16T04:38:53.290Z,14.70
2018-06-16T04:41:21.492Z,14.90
2018-06-16T04:43:50.655Z,15.10
2018-06-16T04:46:18.820Z,15.30
2018-06-16T04:48:47.025Z,15.50
2018-06-16T04:51:15.247Z,15.70
2018-06-16T04:53:43.461Z,15.90
2018-06-16T04:56:11.681Z,16.00
2018-06-16T04:58:39.878Z,16.10
2018-06-16T05:01:08.080Z,16.20
2018-06-16T05:03:36.762Z,16.20
2018-06-16T05:06:04.936Z,16.30
2018-06-16T05:08:33.732Z,16.30
2018-06-16T05:11:02.535Z,16.10
2018-06-16T05:13:30.790Z,16.20
2018-06-16T05:15:59.053Z,16.50
2018-06-16T05:18:27.305Z,16.70
2018-06-16T05:20:55.525Z,16.70
2018-06-16T05:23:27.908Z,16.80
2018-06-16T05:25:56.085Z,16.90
2018-06-16T05:28:24.289Z,17.10
2018-06-16T05:30:52.517Z,17.20
2018-06-16T05:33:20.769Z,17.20
2018-06-16T05:35:48.995Z,17.50
2018-06-16T05:38:17.745Z,17.90
2018-06-16T05:40:45.906Z,18.20
2018-06-16T05:43:14.723Z,18.30
2018-06-16T05:45:43.488Z,18.40
2018-06-16T05:48:11.725Z,18.40
2018-06-16T05:50:39.958Z,18.30
2018-06-16T05:53:08.150Z,18.50
2018-06-16T05:55:36.377Z,18.60
2018-06-16T05:58:04.553Z,18.50
2018-06-16T06:00:33.574Z,18.50
2018-06-16T06:03:01.750Z,18.60
2018-06-16T06:05:30.065Z,18.70
2018-06-16T06:07:58.290Z,19.10
2018-06-16T06:10:26.617Z,19.50
2018-06-16T06:12:55.681Z,19.70
2018-06-16T06:15:24.085Z,19.80
2018-06-16T06:17:52.361Z,19.90
2018-06-16T06:20:22.074Z,20.00
2018-06-16T06:22:50.344Z,20.20
2018-06-16T06:25:18.502Z,20.40
2018-06-16T06:27:46.742Z,20.70
2018-06-16T06:30:15.853Z,20.90
2018-06-16T06:32:44.070Z,20.80
2018-06-16T06:35:12.274Z,21.10
2018-06-16T06:37:40.496Z,21.30
2018-06-16T06:40:08.722Z,21.40
2018-06-16T06:42:37.549Z,21.70
2018-06-16T06:45:05.741Z,21.90
2018-06-16T06:47:34.938Z,22.10
2018-06-16T06:50:03.165Z,22.20
2018-06-16T06:52:32.322Z,22.30
2018-06-16T06:55:00.501Z,22.80
2018-06-16T06:57:28.733Z,23.10
2018-06-16T06:59:56.975Z,23.00
2018-06-16T07:02:25.151Z,22.80
2018-06-16T07:04:53.382Z,22.80
2018-06-16T07:07:22.222Z,22.40
2018-06-16T07:09:51.034Z,22.10
2018-06-16T07:12:19.650Z,22.20
2018-06-16T07:14:49.346Z,22.30
2018-06-16T07:17:17.583Z,22.30
2018-06-16T07:19:46.069Z,22.80
2018-06-16T07:22:14.927Z,23.30
2018-06-16T07:24:43.101Z,23.60
2018-06-16T07:27:12.004Z,23.70
2018-06-16T07:29:40.117Z,24.10
2018-06-16T07:32:09.509Z,24.30
2018-06-16T07:34:37.715Z,24.80
2018-06-16T07:37:05.921Z,25.10
2018-06-16T07:39:35.525Z,25.20
2018-06-16T07:42:03.827Z,25.00
2018-06-16T07:44:32.406Z,25.50
2018-06-16T07:47:01.859Z,26.20
2018-06-16T07:49:30.747Z,27.10
2018-06-16T07:51:58.973Z,27.80
2018-06-16T07:54:27.206Z,28.30
2018-06-16T07:56:55.675Z,28.40
2018-06-16T07:59:23.989Z,27.70
2018-06-16T08:01:52.186Z,27.40
2018-06-16T08:04:20.429Z,27.40
2018-06-16T08:06:48.602Z,27.50
2018-06-16T08:09:16.797Z,27.30
2018-06-16T08:11:45.820Z,26.90
2018-06-16T08:14:14.046Z,26.90
2018-06-16T08:16:42.270Z,26.70
2018-06-16T08:19:10.734Z,26.30
2018-06-16T08:21:38.922Z,26.50
2018-06-16T08:24:08.619Z,26.50
2018-06-16T08:26:37.924Z,26.20
2018-06-16T08:29:06.954Z,26.00
2018-06-16T08:31:35.850Z,25.90
2018-06-16T08:34:04.025Z,25.50
2018-06-16T08:36:32.806Z,25.00
2018-06-16T08:39:01.005Z,24.40
2018-06-16T08:41:29.219Z,24.10
2018-06-16T08:43:57.397Z,23.70
2018-06-16T08:46:25.607Z,23.90
2018-06-16T08:48:53.834Z,24.30
2018-06-16T08:51:22.066Z,24.00
2018-06-16T08:53:50.903Z,23.90
2018-06-16T08:56:19.085Z,23.70
2018-06-16T08:58:47.770Z,23.50
2018-06-16T09:01:15.957Z,23.80
2018-06-16T09:03:44.517Z,24.00
2018-06-16T09:06:12.717Z,23.90
2018-06-16T09:08:41.365Z,23.50
2018-06-16T09:11:09.614Z,23.20
2018-06-16T09:16:06.018Z,22.50
2018-06-16T09:18:35.942Z,22.40
2018-06-16T09:21:04.222Z,22.30
2018-06-16T09:23:32.682Z,22.30
2018-06-16T09:26:00.971Z,22.60
2018-06-16T09:28:29.193Z,22.80
2018-06-16T09:30:57.490Z,22.70
2018-06-16T09:33:25.654Z,22.50
2018-06-16T09:35:53.938Z,22.30
2018-06-16T09:38:23.002Z,22.10
2018-06-16T09:40:51.889Z,22.10
2018-06-16T09:43:20.133Z,22.00
2018-06-16T09:45:48.356Z,21.80
2018-06-16T09:48:17.136Z,21.70
2018-06-16T09:50:45.250Z,21.80
2018-06-16T09:53:13.816Z,21.80
2018-06-16T09:55:42.026Z,21.70
2018-06-16T09:58:10.786Z,21.80
2018-06-16T10:00:40.707Z,22.00
2018-06-16T10:03:09.757Z,22.10
2018-06-16T10:05:38.593Z,22.20
2018-06-16T10:08:06.810Z,22.30
2018-06-16T10:10:35.948Z,22.50
2018-06-16T10:13:05.054Z,22.70
2018-06-16T10:15:33.713Z,23.10
2018-06-16T10:18:02.693Z,23.50
2018-06-16T10:20:31.488Z,23.80
2018-06-16T10:22:59.733Z,24.10
2018-06-16T10:25:28.228Z,24.40
2018-06-16T10:27:56.429Z,24.20
2018-06-16T10:30:24.857Z,24.40
2018-06-16T10:32:53.096Z,25.10
2018-06-16T10:35:21.333Z,25.70
2018-06-16T10:37:49.572Z,26.10
2018-06-16T10:40:18.093Z,26.50
2018-06-16T10:42:46.309Z,26.60
2018-06-16T10:45:14.505Z,26.80
2018-06-16T10:47:42.737Z,27.10
2018-06-16T10:50:11.288Z,27.60
2018-06-16T10:52:39.494Z,27.70
2018-06-16T10:55:08.598Z,27.50
2018-06-16T10:57:36.789Z,27.30
2018-06-16T11:00:05.020Z,27.50
2018-06-16T11:05:01.838Z,28.20
2018-06-16T11:07:30.072Z,28.50
2018-06-16T11:09:59.526Z,27.60
2018-06-16T11:12:27.768Z,26.70
2018-06-16T11:14:57.107Z,26.20
2018-06-16T11:17:25.330Z,26.40
2018-06-16T11:19:54.218Z,26.20
2018-06-16T11:22:22.799Z,25.90
2018-06-16T11:24:51.629Z,26.10
2018-06-16T11:27:19.821Z,25.60
2018-06-16T11:29:48.082Z,24.90
2018-06-16T11:32:16.278Z,24.70
2018-06-16T11:34:44.508Z,24.60
2018-06-16T11:37:12.740Z,24.50
2018-06-16T11:39:40.958Z,24.70
2018-06-16T11:42:09.165Z,24.90
2018-06-16T11:44:37.343Z,25.50
2018-06-16T11:47:06.216Z,26.30
2018-06-16T11:49:34.357Z,26.80
2018-06-16T11:52:03.449Z,26.70
2018-06-16T11:54:31.629Z,26.40
2018-06-16T11:57:00.174Z,26.30
2018-06-16T11:59:28.389Z,26.50
2018-06-16T12:01:56.654Z,26.70
2018-06-16T12:04:24.860Z,27.00
2018-06-16T12:06:53.078Z,27.20
2018-06-16T12:09:21.953Z,27.30
2018-06-16T12:11:51.063Z,27.50
2018-06-16T12:14:19.245Z,27.50
2018-06-16T12:16:47.938Z,27.20
2018-06-16T12:19:16.505Z,27.10
2018-06-16T12:21:44.752Z,27.00
2018-06-16T12:24:13.493Z,27.10
2018-06-16T12:26:41.723Z,27.50
2018-06-16T12:29:10.454Z,28.10
2018-06-16T12:31:38.720Z,28.50
2018-06-16T12:34:06.945Z,28.80
2018-06-16T12:36:35.477Z,28.80
2018-06-16T12:39:05.913Z,29.10
2018-06-16T12:41:35.185Z,28.60
2018-06-16T12:44:04.052Z,28.40
2018-06-16T12:46:32.254Z,28.60
2018-06-16T12:49:01.117Z,28.60
2018-06-16T12:51:30.085Z,28.30
2018-06-16T12:53:58.294Z,28.10
2018-06-16T12:56:26.909Z,28.40
2018-06-16T12:58:55.300Z,28.80
2018-06-16T13:01:23.513Z,29.00
2018-06-16T13:03:52.341Z,28.70
2018-06-16T13:06:20.558Z,27.80
2018-06-16T13:08:48.761Z,27.70
2018-06-16T13:11:16.972Z,28.30
2018-06-16T13:13:45.201Z,28.80
2018-06-16T13:16:13.462Z,29.30
2018-06-16T13:18:42.578Z,29.20
2018-06-16T13:21:10.793Z,29.10
2018-06-16T13:23:39.016Z,28.90
2018-06-16T13:26:07.486Z,29.60
2018-06-16T13:28:35.687Z,29.90
2018-06-16T13:31:03.913Z,29.80
2018-06-16T13:36:00.134Z,28.20
2018-06-16T13:38:28.385Z,27.90
2018-06-16T13:40:56.717Z,28.10
2018-06-16T13:43:25.695Z,28.10
2018-06-16T13:45:53.981Z,27.60
2018-06-16T13:48:22.189Z,27.30
2018-06-16T13:50:50.452Z,28.10
2018-06-16T13:53:18.678Z,28.90
2018-06-16T13:55:46.865Z,29.30
2018-06-16T13:58:15.131Z,28.90
2018-06-16T14:00:43.312Z,28.90
2018-06-16T14:03:12.126Z,28.80
2018-06-16T14:05:40.382Z,28.40
2018-06-16T14:08:08.746Z,27.70
2018-06-16T14:10:37.352Z,27.90
2018-06-16T14:15:33.914Z,27.90
2018-06-16T14:18:03.569Z,28.20
2018-06-16T14:20:32.247Z,27.70
2018-06-16T14:23:00.707Z,27.60
2018-06-16T14:25:28.908Z,27.80
2018-06-16T14:27:57.760Z,28.20
2018-06-16T14:30:25.985Z,27.90
2018-06-16T14:33:01.418Z,27.60
2018-06-16T14:35:30.186Z,27.30
2018-06-16T14:37:59.249Z,27.20
2018-06-16T14:40:27.466Z,27.30
2018-06-16T14:42:55.707Z,27.00
2018-06-16T14:45:23.917Z,26.80
2018-06-16T14:47:52.141Z,27.00
2018-06-16T14:50:20.433Z,26.90
2018-06-16T14:52:48.690Z,26.70
2018-06-16T14:55:17.294Z,27.00
2018-06-16T14:57:45.480Z,27.30
2018-06-16T15:00:13.682Z,27.10
2018-06-16T15:02:41.998Z,27.20
2018-06-16T15:05:10.263Z,27.40
2018-06-16T15:07:40.092Z,27.30
2018-06-16T15:10:08.473Z,27.30
2018-06-16T15:12:37.064Z,27.40
2018-06-16T15:15:05.394Z,27.30
2018-06-16T15:17:33.566Z,27.30
2018-06-16T15:20:02.694Z,27.30
2018-06-16T15:22:31.312Z,27.20
2018-06-16T15:24:59.510Z,27.20
2018-06-16T15:27:28.126Z,27.00
2018-06-16T15:29:56.340Z,26.80
2018-06-16T15:32:24.553Z,26.50
2018-06-16T15:34:53.300Z,26.10
2018-06-16T15:37:21.913Z,26.10
2018-06-16T15:39:50.135Z,25.80
2018-06-16T15:42:19.195Z,25.20
2018-06-16T15:44:47.782Z,25.00
2018-06-16T15:47:16.550Z,24.80
2018-06-16T15:49:44.766Z,24.60
2018-06-16T15:52:12.957Z,24.50
2018-06-16T15:54:41.594Z,24.60
2018-06-16T15:57:10.330Z,24.90
2018-06-16T15:59:38.610Z,25.00
2018-06-16T16:02:06.809Z,25.10
2018-06-16T16:04:35.110Z,25.30
2018-06-16T16:07:04.458Z,25.30
2018-06-16T16:09:32.654Z,25.50
2018-06-16T16:12:02.169Z,25.50
2018-06-16T16:14:30.416Z,25.40
2018-06-16T16:16:59.762Z,25.30
2018-06-16T16:19:29.076Z,25.20
2018-06-16T16:21:57.286Z,25.00
2018-06-16T16:24:25.425Z,24.90
2018-06-16T16:26:53.659Z,25.00
2018-06-16T16:29:21.853Z,25.00
2018-06-16T16:31:50.038Z,25.10
2018-06-16T16:34:19.086Z,25.10
2018-06-16T16:36:48.043Z,25.30
2018-06-16T16:39:16.285Z,25.50
2018-06-16T16:41:44.461Z,25.70
2018-06-16T16:44:12.723Z,25.80
2018-06-16T16:46:41.414Z,25.90
2018-06-16T16:49:09.654Z,26.00
2018-06-16T16:51:37.954Z,26.30
2018-06-16T16:54:06.132Z,26.40
2018-06-16T16:56:36.649Z,26.30
2018-06-16T16:59:05.780Z,25.70
2018-06-16T17:01:34.053Z,24.80
2018-06-16T17:04:02.235Z,24.40
2018-06-16T17:06:30.464Z,24.00
2018-06-16T17:08:58.713Z,23.80
2018-06-16T17:11:27.397Z,23.80
2018-06-16T17:13:55.970Z,23.90
2018-06-16T17:16:24.358Z,24.10
2018-06-16T17:18:52.558Z,24.20
2018-06-16T17:21:20.821Z,24.50
2018-06-16T17:23:49.060Z,24.70
2018-06-16T17:26:17.260Z,25.00
2018-06-16T17:28:46.589Z,25.20
2018-06-16T17:31:14.838Z,25.50
2018-06-16T17:33:43.039Z,25.50
2018-06-16T17:36:11.253Z,25.50
2018-06-16T17:38:39.437Z,25.50
2018-06-16T17:41:07.685Z,25.50
2018-06-16T17:43:35.962Z,25.50
2018-06-16T17:46:04.142Z,25.50
2018-06-16T17:48:32.368Z,25.50
2018-06-16T17:51:00.601Z,25.40
2018-06-16T17:53:28.842Z,25.50
2018-06-16T17:55:57.089Z,25.20
2018-06-16T17:58:25.401Z,25.20
2018-06-16T18:00:53.602Z,25.10
2018-06-16T18:03:21.837Z,25.00
2018-06-16T18:05:50.059Z,24.80
2018-06-16T18:08:18.639Z,24.80
2018-06-16T18:10:46.851Z,24.70
2018-06-16T18:13:15.077Z,24.50
2018-06-16T18:15:43.277Z,24.40
2018-06-16T18:18:12.457Z,24.40
2018-06-16T18:20:41.197Z,24.30
2018-06-16T18:23:10.081Z,24.10
2018-06-16T18:25:38.340Z,24.00
2018-06-16T18:28:06.573Z,23.90
2018-06-16T18:30:34.778Z,23.90
2018-06-16T18:33:04.673Z,24.00
2018-06-16T18:35:33.819Z,23.80
2018-06-16T18:38:02.929Z,23.80
2018-06-16T18:40:31.663Z,23.80
2018-06-16T18:43:00.462Z,23.70
2018-06-16T18:45:28.646Z,23.40
2018-06-16T18:47:57.473Z,23.30
2018-06-16T18:50:25.737Z,23.30
2018-06-16T18:52:54.224Z,23.20
2018-06-16T18:55:22.441Z,22.90
2018-06-16T18:57:50.705Z,22.50
2018-06-16T19:00:18.921Z,22.40
2018-06-16T19:02:47.154Z,22.20
2018-06-16T19:05:15.753Z,22.10
2018-06-16T19:07:43.958Z,21.90
2018-06-16T19:10:12.974Z,21.70
2018-06-16T19:12:41.188Z,21.60
2018-06-16T19:15:09.374Z,21.50
2018-06-16T19:17:37.601Z,21.20
2018-06-16T19:20:06.338Z,21.00
2018-06-16T19:22:34.953Z,20.80
2018-06-16T19:25:03.728Z,20.60
2018-06-16T19:27:31.969Z,20.40
2018-06-16T19:30:00.204Z,20.40
2018-06-16T19:32:28.367Z,20.40
2018-06-16T19:34:56.957Z,20.30
2018-06-16T19:37:25.216Z,20.10
2018-06-16T19:39:53.398Z,19.80
2018-06-16T19:42:21.827Z,19.50
2018-06-16T19:44:50.684Z,19.20
2018-06-16T19:47:19.281Z,19.00
2018-06-16T19:49:47.474Z,18.80
2018-06-16T19:52:16.162Z,18.60
2018-06-16T19:54:45.359Z,18.40
2018-06-16T19:57:13.923Z,18.20
2018-06-16T19:59:42.453Z,18.20
2018-06-16T20:02:10.708Z,18.10
2018-06-16T20:04:38.945Z,17.90
2018-06-16T20:07:07.117Z,17.90
2018-06-16T20:09:35.393Z,17.70
2018-06-16T20:12:04.635Z,17.60
2018-06-16T20:14:32.833Z,17.50
2018-06-16T20:17:01.065Z,17.40
2018-06-16T20:19:29.897Z,17.40
2018-06-16T20:21:59.506Z,17.40
2018-06-16T20:24:27.731Z,17.50
2018-06-16T20:26:56.010Z,17.50
2018-06-16T20:29:25.790Z,17.50
2018-06-16T20:31:54.049Z,17.50
2018-06-16T20:34:22.267Z,17.50
2018-06-16T20:36:50.466Z,17.50
2018-06-16T20:39:19.199Z,17.60
2018-06-16T20:41:47.437Z,17.60
2018-06-16T20:44:16.763Z,17.60
2018-06-16T20:46:44.973Z,17.60
2018-06-16T20:49:13.697Z,17.60
2018-06-16T20:51:41.899Z,17.70
2018-06-16T20:54:10.137Z,17.70
2018-06-16T20:56:39.194Z,17.80
2018-06-16T20:59:07.397Z,17.80
2018-06-16T21:01:35.731Z,17.90
2018-06-16T21:04:03.941Z,18.00
2018-06-16T21:06:32.838Z,18.10
2018-06-16T21:09:02.066Z,18.40
2018-06-16T21:11:30.249Z,18.70
2018-06-16T21:13:58.481Z,18.80
2018-06-16T21:16:27.589Z,18.90
2018-06-16T21:18:55.814Z,19.00
2018-06-16T21:21:24.714Z,19.10
2018-06-16T21:23:53.630Z,19.10
2018-06-16T21:26:21.922Z,19.20
2018-06-16T21:28:50.450Z,19.30
2018-06-16T21:31:19.569Z,19.20
2018-06-16T21:33:47.802Z,19.20
2018-06-16T21:36:15.993Z,19.10
2018-06-16T21:38:45.795Z,18.90
2018-06-16T21:41:13.989Z,18.90
2018-06-16T21:43:42.247Z,18.80
2018-06-16T21:46:10.486Z,18.70
2018-06-16T21:48:38.686Z,18.70
2018-06-16T21:51:06.905Z,18.70
2018-06-16T21:53:35.514Z,18.60
2018-06-16T21:56:04.329Z,18.40
2018-06-16T21:58:32.506Z,18.20
2018-06-16T22:01:00.697Z,18.20
2018-06-16T22:03:29.885Z,18.20
2018-06-16T22:05:58.126Z,18.10
2018-06-16T22:08:32.172Z,18.00
2018-06-16T22:11:01.103Z,18.10
2018-06-16T22:13:29.791Z,18.10
2018-06-16T22:15:57.974Z,18.00
2018-06-16T22:18:26.653Z,17.80
2018-06-16T22:20:55.354Z,17.80
2018-06-16T22:23:23.617Z,17.70
2018-06-16T22:25:52.204Z,17.60
2018-06-16T22:28:20.670Z,17.60
2018-06-16T22:30:49.206Z,17.50
2018-06-16T22:33:17.409Z,17.50
2018-06-16T22:35:46.241Z,17.30
2018-06-16T22:38:14.805Z,17.20
2018-06-16T22:40:43.030Z,17.20
2018-06-16T22:43:12.089Z,17.10
2018-06-16T22:45:40.307Z,17.10
2018-06-16T22:48:08.528Z,17.10
2018-06-16T22:50:37.281Z,17.00
2018-06-16T22:53:06.478Z,17.00
2018-06-16T22:55:34.730Z,17.00
2018-06-16T22:58:03.569Z,17.10
2018-06-16T23:00:31.750Z,17.10
2018-06-16T23:03:00.445Z,17.10
2018-06-16T23:05:28.650Z,17.10
2018-06-16T23:07:56.894Z,17.10
2018-06-16T23:10:25.692Z,17.10
2018-06-16T23:12:53.900Z,17.00
2018-06-16T23:15:22.229Z,17.10
2018-06-16T23:17:51.434Z,17.10
2018-06-16T23:20:19.954Z,17.00
2018-06-16T23:22:48.239Z,17.10
2018-06-16T23:25:16.473Z,17.10
2018-06-16T23:27:45.574Z,17.20
2018-06-16T23:30:13.869Z,17.10
2018-06-16T23:32:42.546Z,17.10
2018-06-16T23:35:10.793Z,17.10
2018-06-16T23:37:38.962Z,17.10
2018-06-16T23:40:07.849Z,17.10
2018-06-16T23:42:37.090Z,17.10
2018-06-16T23:45:05.794Z,17.00
2018-06-16T23:47:34.645Z,16.90
2018-06-16T23:50:03.449Z,16.80
2018-06-16T23:52:31.669Z,16.80
2018-06-16T23:54:59.901Z,16.70
2018-06-16T23:57:29.110Z,16.70
2018-06-16T23:59:57.341Z,16.70
